createdAt,value
2019-05-26T00:01:51.218Z,18.60
2019-05-26T00:06:59.996Z,18.60
2019-05-26T00:12:08.851Z,18.50
2019-05-26T00:17:17.724Z,18.40
2019-05-26T00:22:26.538Z,18.40
2019-05-26T00:27:35.364Z,18.30
2019-05-26T00:32:44.131Z,18.20
2019-05-26T00:37:52.910Z,18.20
2019-05-26T00:43:01.699Z,18.30
2019-05-26T00:48:10.572Z,18.30
2019-05-26T00:53:19.288Z,18.30
2019-05-26T00:58:28.196Z,18.30
2019-05-26T01:03:37.064Z,18.30
2019-05-26T01:08:45.958Z,18.20
2019-05-26T01:13:54.657Z,18.20
2019-05-26T01:19:03.532Z,18.20
2019-05-26T01:24:12.342Z,18.00
2019-05-26T01:29:21.009Z,18.00
2019-05-26T01:34:31.067Z,17.90
2019-05-26T01:39:39.937Z,17.90
2019-05-26T01:44:48.620Z,17.70
2019-05-26T01:49:57.250Z,17.70
2019-05-26T01:55:06.064Z,17.70
2019-05-26T02:00:15.050Z,17.50
2019-05-26T02:05:23.850Z,17.60
2019-05-26T02:10:32.732Z,17.60
2019-05-26T02:15:41.410Z,17.60
2019-05-26T02:20:50.177Z,17.60
2019-05-26T02:25:58.915Z,17.60
2019-05-26T02:31:07.545Z,17.60
2019-05-26T02:36:16.246Z,17.50
2019-05-26T02:41:25.064Z,17.70
2019-05-26T02:46:33.915Z,17.40
2019-05-26T02:51:42.654Z,17.40
2019-05-26T02:56:51.389Z,17.30
2019-05-26T03:02:03.842Z,17.30
2019-05-26T03:07:09.267Z,17.30
2019-05-26T03:12:18.007Z,17.20
2019-05-26T03:17:27.099Z,17.20
2019-05-26T03:22:36.400Z,17.20
2019-05-26T03:27:45.033Z,17.10
2019-05-26T03:32:53.909Z,17.00
2019-05-26T03:38:02.774Z,17.00
2019-05-26T03:43:11.597Z,17.00
2019-05-26T03:48:20.237Z,17.00
2019-05-26T03:53:29.197Z,17.00
2019-05-26T03:58:38.612Z,17.00
2019-05-26T04:03:47.342Z,17.00
2019-05-26T04:08:56.198Z,17.00
2019-05-26T04:14:04.951Z,17.00
2019-05-26T04:19:13.662Z,17.00
2019-05-26T04:24:22.467Z,17.00
2019-05-26T04:29:31.402Z,17.00
2019-05-26T04:34:40.275Z,17.00
2019-05-26T04:39:48.961Z,17.00
2019-05-26T04:44:57.663Z,16.80
2019-05-26T04:55:22.012Z,16.70
2019-05-26T05:00:30.942Z,16.70
2019-05-26T05:05:39.672Z,16.80
2019-05-26T05:10:48.476Z,16.90
2019-05-26T05:15:57.406Z,16.90
2019-05-26T05:21:06.039Z,17.00
2019-05-26T05:26:14.811Z,17.00
2019-05-26T05:31:23.614Z,17.00
2019-05-26T05:36:32.341Z,17.00
2019-05-26T05:41:41.010Z,17.20
2019-05-26T05:46:49.796Z,17.10
2019-05-26T05:51:58.699Z,17.20
2019-05-26T05:57:07.566Z,17.40
2019-05-26T06:02:16.402Z,17.40
2019-05-26T06:07:25.241Z,17.40
2019-05-26T06:12:34.128Z,17.50
2019-05-26T06:17:42.949Z,17.50
2019-05-26T06:22:51.884Z,17.50
2019-05-26T06:28:00.963Z,17.70
2019-05-26T06:33:09.731Z,17.60
2019-05-26T06:38:18.735Z,17.70
2019-05-26T06:43:27.404Z,17.70
2019-05-26T06:48:35.986Z,17.80
2019-05-26T06:53:44.808Z,17.90
2019-05-26T06:58:53.382Z,18.10
2019-05-26T07:04:02.048Z,18.10
2019-05-26T07:09:10.960Z,18.20
2019-05-26T07:14:19.906Z,18.40
2019-05-26T07:19:28.737Z,18.60
2019-05-26T07:24:37.636Z,18.70
2019-05-26T07:29:46.489Z,18.70
2019-05-26T07:34:55.262Z,18.90
2019-05-26T07:40:04.137Z,18.60
2019-05-26T07:45:12.976Z,19.10
2019-05-26T07:50:23.277Z,19.40
2019-05-26T07:55:31.994Z,19.70
2019-05-26T08:00:40.758Z,19.90
2019-05-26T08:05:49.448Z,20.00
2019-05-26T08:10:58.196Z,20.30
2019-05-26T08:16:07.020Z,20.80
2019-05-26T08:21:15.794Z,20.90
2019-05-26T08:26:24.659Z,21.30
2019-05-26T08:31:33.381Z,21.70
2019-05-26T08:36:42.070Z,22.00
2019-05-26T08:41:50.828Z,22.10
2019-05-26T08:46:59.566Z,22.10
2019-05-26T08:52:08.426Z,22.40
2019-05-26T08:57:17.289Z,22.70
2019-05-26T09:02:26.102Z,23.00
2019-05-26T09:07:34.925Z,22.30
2019-05-26T09:12:43.600Z,23.20
2019-05-26T09:17:52.387Z,23.00
2019-05-26T09:23:01.294Z,23.10
2019-05-26T09:28:10.039Z,23.80
2019-05-26T09:33:18.937Z,24.40
2019-05-26T09:38:27.704Z,25.10
2019-05-26T09:43:36.533Z,25.40
2019-05-26T09:48:45.191Z,25.40
2019-05-26T09:54:01.838Z,26.10
2019-05-26T09:59:02.701Z,26.50
2019-05-26T10:04:11.535Z,27.20
2019-05-26T10:09:20.125Z,27.50
2019-05-26T10:14:28.961Z,27.60
2019-05-26T10:19:37.786Z,27.60
2019-05-26T10:24:46.469Z,27.70
2019-05-26T10:29:55.258Z,27.10
2019-05-26T10:35:05.073Z,26.70
2019-05-26T10:40:14.187Z,27.60
2019-05-26T10:45:23.037Z,27.50
2019-05-26T10:50:31.754Z,26.70
2019-05-26T10:55:40.633Z,27.40
2019-05-26T11:00:49.447Z,26.80
2019-05-26T11:05:58.364Z,27.60
2019-05-26T11:11:07.016Z,28.30
2019-05-26T11:16:15.829Z,28.80
2019-05-26T11:21:24.615Z,28.60
2019-05-26T11:26:33.503Z,29.20
2019-05-26T11:31:42.141Z,29.40
2019-05-26T11:36:50.844Z,29.60
2019-05-26T11:42:12.238Z,29.60
2019-05-26T11:47:07.981Z,29.90
2019-05-26T11:52:20.083Z,30.10
2019-05-26T11:57:25.301Z,30.00
2019-05-26T12:02:34.029Z,30.40
2019-05-26T12:07:42.773Z,30.00
2019-05-26T12:12:51.292Z,29.90
2019-05-26T12:17:59.790Z,30.00
2019-05-26T12:23:08.335Z,30.10
2019-05-26T12:28:16.953Z,29.40
2019-05-26T12:33:25.475Z,29.80
2019-05-26T12:38:35.299Z,29.50
2019-05-26T12:43:43.961Z,30.00
2019-05-26T12:48:52.722Z,30.30
2019-05-26T12:54:01.475Z,30.60
2019-05-26T12:59:10.335Z,29.60
2019-05-26T13:04:19.132Z,28.80
2019-05-26T13:09:27.988Z,28.30
2019-05-26T13:14:36.745Z,28.60
2019-05-26T13:19:45.427Z,28.50
2019-05-26T13:24:54.336Z,28.60
2019-05-26T13:30:03.548Z,28.60
2019-05-26T13:35:12.545Z,28.90
2019-05-26T13:40:21.480Z,28.90
2019-05-26T13:45:33.619Z,28.70
2019-05-26T13:50:39.019Z,28.30
2019-05-26T13:55:47.916Z,28.20
2019-05-26T14:00:56.875Z,28.40
2019-05-26T14:06:05.729Z,28.70
2019-05-26T14:11:14.434Z,28.80
2019-05-26T14:16:23.428Z,28.50
2019-05-26T14:21:32.333Z,28.70
2019-05-26T14:26:41.078Z,28.10
2019-05-26T14:31:52.767Z,28.20
2019-05-26T14:36:58.802Z,27.80
2019-05-26T14:42:07.623Z,27.30
2019-05-26T14:47:16.217Z,27.50
2019-05-26T14:52:25.077Z,28.10
2019-05-26T14:57:34.008Z,28.20
2019-05-26T15:02:42.810Z,27.80
2019-05-26T15:07:51.574Z,27.50
2019-05-26T15:13:00.461Z,28.00
2019-05-26T15:18:09.430Z,28.30
2019-05-26T15:23:18.159Z,28.10
2019-05-26T15:28:27.098Z,28.10
2019-05-26T15:33:35.821Z,28.20
2019-05-26T15:38:44.814Z,28.10
2019-05-26T15:43:53.760Z,27.70
2019-05-26T15:49:02.539Z,27.60
2019-05-26T15:54:11.667Z,27.60
2019-05-26T15:59:20.567Z,27.30
2019-05-26T16:04:29.221Z,27.40
2019-05-26T16:09:38.119Z,27.50
2019-05-26T16:14:47.011Z,27.60
2019-05-26T16:19:55.750Z,27.60
2019-05-26T16:25:04.767Z,27.00
2019-05-26T16:30:13.472Z,26.90
2019-05-26T16:35:22.231Z,26.80
2019-05-26T16:40:31.040Z,26.80
2019-05-26T16:45:54.956Z,26.70
2019-05-26T16:50:48.743Z,26.70
2019-05-26T16:55:57.975Z,26.50
2019-05-26T17:01:06.789Z,26.30
2019-05-26T17:06:15.701Z,26.20
2019-05-26T17:11:24.678Z,26.20
2019-05-26T17:16:33.679Z,26.10
2019-05-26T17:21:43.250Z,26.00
2019-05-26T17:26:51.994Z,25.90
2019-05-26T17:32:00.929Z,25.80
2019-05-26T17:37:09.838Z,26.00
2019-05-26T17:42:19.232Z,25.90
2019-05-26T17:47:30.777Z,25.80
2019-05-26T17:52:37.428Z,25.50
2019-05-26T17:57:48.155Z,25.20
2019-05-26T18:03:00.874Z,24.70
2019-05-26T18:08:09.708Z,25.40
2019-05-26T18:13:18.609Z,25.20
2019-05-26T18:18:27.282Z,25.20
2019-05-26T18:23:36.279Z,25.30
2019-05-26T18:28:45.130Z,25.20
2019-05-26T18:33:54.210Z,25.10
2019-05-26T18:39:03.965Z,25.00
2019-05-26T18:44:13.586Z,24.90
2019-05-26T18:49:23.207Z,24.90
2019-05-26T18:54:33.980Z,24.70
2019-05-26T18:59:43.770Z,24.60
2019-05-26T19:04:54.875Z,24.50
2019-05-26T19:10:06.176Z,24.50
2019-05-26T19:15:19.481Z,24.30
2019-05-26T19:20:33.377Z,24.30
2019-05-26T19:25:42.405Z,24.10
2019-05-26T19:30:51.318Z,24.00
2019-05-26T19:36:00.274Z,23.80
2019-05-26T19:41:09.414Z,23.70
2019-05-26T19:46:18.226Z,23.60
2019-05-26T19:51:27.236Z,23.50
2019-05-26T19:56:36.314Z,23.10
2019-05-26T20:01:45.032Z,22.80
2019-05-26T20:06:53.972Z,22.90
2019-05-26T20:12:02.881Z,22.30
2019-05-26T20:17:11.798Z,22.00
2019-05-26T20:22:24.312Z,22.20
2019-05-26T20:27:29.636Z,22.40
2019-05-26T20:32:38.492Z,22.30
2019-05-26T20:37:47.227Z,22.30
2019-05-26T20:42:56.220Z,22.20
2019-05-26T20:48:04.946Z,22.20
2019-05-26T20:53:13.824Z,22.10
2019-05-26T20:58:22.664Z,22.10
2019-05-26T21:03:31.356Z,22.00
2019-05-26T21:08:40.320Z,21.70
2019-05-26T21:13:49.053Z,21.30
2019-05-26T21:18:57.597Z,21.40
2019-05-26T21:24:06.260Z,21.50
2019-05-26T21:29:15.253Z,21.50
2019-05-26T21:34:24.148Z,21.50
2019-05-26T21:39:33.017Z,21.30
2019-05-26T21:44:41.985Z,21.30
2019-05-26T21:49:50.867Z,21.30
2019-05-26T21:54:59.796Z,21.40
2019-05-26T22:00:08.807Z,21.40
2019-05-26T22:05:18.152Z,21.40
2019-05-26T22:10:26.840Z,21.50
2019-05-26T22:15:35.530Z,21.50
2019-05-26T22:20:44.663Z,21.50
2019-05-26T22:25:53.491Z,21.50
2019-05-26T22:31:02.325Z,21.40
2019-05-26T22:36:11.124Z,21.30
2019-05-26T22:41:20.015Z,21.30
2019-05-26T22:46:28.740Z,21.00
2019-05-26T22:51:37.634Z,21.00
2019-05-26T22:56:46.308Z,21.10
2019-05-26T23:01:54.974Z,21.00
2019-05-26T23:07:03.950Z,20.90
2019-05-26T23:12:12.694Z,20.70
2019-05-26T23:17:22.985Z,20.60
2019-05-26T23:22:31.855Z,20.60
2019-05-26T23:27:40.666Z,20.60
2019-05-26T23:32:49.578Z,20.50
2019-05-26T23:37:58.268Z,20.50
2019-05-26T23:43:07.086Z,20.50
2019-05-26T23:48:15.766Z,20.40
2019-05-26T23:53:24.519Z,20.30
2019-05-26T23:58:33.392Z,20.20
